Time;durP1;ratioP1;P1;durP2;ratioP2;P2;SDS_P1;SDS_P2;PMS_P1;PMS_P2;Temp;Humidity;BMP_temperature;BMP_pressure;BME280_temperature;BME280_humidity;BME280_pressure;Samples;Min_cycle;Max_cycle;Signal;HPM_P1;HPM_P2
2023/08/05 00:05:28;;;;;;;8.50;5.68;;;15.20;99.90;;;;;;20670491;28;20425;-42
2023/08/05 00:15:28;;;;;;;8.88;5.93;;;15.30;99.90;;;;;;20671018;28;20054;-42
2023/08/05 00:25:29;;;;;;;9.35;5.65;;;15.40;99.90;;;;;;20666977;28;20069;-42
2023/08/05 00:35:29;;;;;;;6.85;5.10;;;15.40;99.90;;;;;;20652808;28;20065;-42
2023/08/05 00:45:30;;;;;;;7.10;5.00;;;15.40;99.90;;;;;;20662006;28;20045;-42
2023/08/05 00:55:31;;;;;;;8.07;4.97;;;15.40;99.90;;;;;;20661537;28;20033;-42
2023/08/05 01:05:32;;;;;;;9.20;5.00;;;15.60;99.90;;;;;;20660854;28;20441;-42
2023/08/05 01:15:33;;;;;;;8.07;4.82;;;15.60;99.90;;;;;;20669368;28;20153;-42
2023/08/05 01:25:35;;;;;;;7.63;4.72;;;15.70;99.90;;;;;;20674804;28;20382;-42
2023/08/05 01:35:35;;;;;;;7.20;4.40;;;15.70;99.90;;;;;;20683195;28;20114;-42
2023/08/05 01:45:36;;;;;;;8.02;4.97;;;15.70;99.90;;;;;;20662079;28;20034;-42
2023/08/05 01:55:36;;;;;;;8.40;4.32;;;15.80;99.90;;;;;;20675670;28;20073;-42
2023/08/05 02:05:37;;;;;;;6.72;5.20;;;15.80;99.90;;;;;;20680737;28;20038;-42
2023/08/05 02:15:37;;;;;;;7.07;4.63;;;15.80;99.90;;;;;;20673326;28;20042;-42
2023/08/05 02:25:38;;;;;;;6.75;4.30;;;15.80;99.90;;;;;;20674882;28;20130;-42
2023/08/05 02:35:38;;;;;;;11.20;6.60;;;15.70;99.90;;;;;;20675581;28;20049;-42
2023/08/05 02:45:39;;;;;;;8.70;5.18;;;15.60;99.90;;;;;;20675532;28;20069;-42
2023/08/05 02:55:40;;;;;;;5.75;4.60;;;15.70;99.90;;;;;;20657515;28;20080;-42
2023/08/05 03:05:41;;;;;;;7.07;4.97;;;15.60;99.90;;;;;;20672134;28;20426;-42
2023/08/05 03:15:41;;;;;;;7.90;5.40;;;15.60;99.90;;;;;;20673365;28;20084;-42
2023/08/05 03:25:42;;;;;;;10.27;6.45;;;15.60;99.90;;;;;;20668317;28;20072;-42
2023/08/05 03:35:43;;;;;;;7.25;5.32;;;15.50;99.90;;;;;;20666513;28;21728;-42
2023/08/05 03:45:53;;;;;;;10.77;5.93;;;15.50;99.90;;;;;;20673745;28;20132;-42
2023/08/05 03:55:54;;;;;;;11.20;6.80;;;15.40;99.90;;;;;;20659533;28;20065;-42
2023/08/05 04:05:55;;;;;;;11.10;6.55;;;15.50;99.90;;;;;;20669309;28;20125;-42
2023/08/05 04:15:58;;;;;;;13.23;7.40;;;15.50;96.30;;;;;;20667960;28;21831;-42
2023/08/05 04:26:02;;;;;;;12.57;6.60;;;15.50;99.90;;;;;;20657347;28;20088;-42
2023/08/05 04:36:03;;;;;;;11.82;7.78;;;15.50;99.90;;;;;;20674112;28;20046;-42
2023/08/05 04:46:04;;;;;;;8.18;6.13;;;15.40;99.90;;;;;;20666349;28;20064;-42
2023/08/05 04:56:04;;;;;;;12.30;6.50;;;15.40;99.90;;;;;;20675166;28;20200;-42
2023/08/05 05:06:05;;;;;;;14.02;6.93;;;15.40;99.90;;;;;;20676134;28;20037;-42
2023/08/05 05:16:06;;;;;;;9.38;5.65;;;15.40;99.90;;;;;;20685392;28;20053;-42
2023/08/05 05:26:07;;;;;;;12.40;6.63;;;15.50;99.90;;;;;;20673890;28;20913;-42
2023/08/05 05:36:07;;;;;;;12.75;6.30;;;15.60;99.90;;;;;;20676655;28;20060;-42
2023/08/05 05:46:08;;;;;;;11.38;7.10;;;15.60;99.90;;;;;;20675486;28;20064;-42
2023/08/05 05:56:08;;;;;;;9.93;6.30;;;15.60;99.90;;;;;;20603086;28;20421;-42
2023/08/05 06:06:09;;;;;;;11.80;7.97;;;15.70;96.40;;;;;;20658791;28;20091;-42
2023/08/05 06:16:10;;;;;;;11.90;6.40;;;15.80;98.60;;;;;;20645020;28;20042;-42
2023/08/05 06:26:10;;;;;;;15.02;8.25;;;16.00;64.30;;;;;;20654375;28;20041;-42
2023/08/05 06:36:11;;;;;;;11.88;6.40;;;16.00;75.90;;;;;;20637716;28;20053;-41
2023/08/05 06:46:11;;;;;;;9.52;5.30;;;16.20;50.50;;;;;;20645204;28;20041;-42
2023/08/05 06:56:12;;;;;;;10.40;4.60;;;16.30;23.50;;;;;;20607615;28;20132;-42
2023/08/05 07:06:12;;;;;;;6.45;4.38;;;16.30;18.80;;;;;;20642901;28;20068;-42
2023/08/05 07:16:13;;;;;;;7.80;5.50;;;16.80;17.20;;;;;;20648563;28;20049;-42
2023/08/05 07:26:14;;;;;;;8.50;6.07;;;17.20;1.00;;;;;;20640243;28;20042;-42
2023/08/05 07:36:17;;;;;;;10.48;7.20;;;17.90;1.00;;;;;;20645168;28;20185;-41
2023/08/05 07:46:19;;;;;;;11.23;7.85;;;18.00;1.00;;;;;;20635203;28;20042;-42
2023/08/05 07:56:19;;;;;;;9.48;6.90;;;18.10;1.00;;;;;;20636504;28;20034;-42
2023/08/05 08:06:20;;;;;;;7.65;5.15;;;18.20;1.00;;;;;;20628355;28;20045;-42
2023/08/05 08:16:21;;;;;;;7.80;4.47;;;18.40;1.00;;;;;;20650638;28;20066;-42
2023/08/05 08:26:21;;;;;;;7.35;5.30;;;18.50;1.00;;;;;;20631632;28;20493;-42
2023/08/05 08:36:23;;;;;;;7.15;4.57;;;18.60;1.00;;;;;;20632439;28;20046;-42
2023/08/05 08:46:25;;;;;;;7.10;5.32;;;18.90;1.00;;;;;;20624874;28;20077;-42
2023/08/05 08:56:26;;;;;;;6.50;4.60;;;18.80;1.00;;;;;;20620032;28;20066;-42
2023/08/05 09:06:27;;;;;;;5.43;3.80;;;18.80;1.00;;;;;;20649429;28;20512;-42
2023/08/05 09:16:29;;;;;;;9.73;5.50;;;19.20;1.00;;;;;;20640018;28;20053;-42
2023/08/05 09:26:31;;;;;;;6.72;4.63;;;19.30;1.00;;;;;;20644565;28;20042;-42
2023/08/05 09:36:32;;;;;;;7.80;5.63;;;19.30;1.00;;;;;;20611930;28;20087;-42
2023/08/05 09:46:39;;;;;;;7.10;4.85;;;19.30;1.00;;;;;;20658218;28;20041;-42
2023/08/05 09:56:40;;;;;;;;;;;19.40;1.00;;;;;;20646558;28;20054;-42
2023/08/05 10:06:41;;;;;;;7.25;5.03;;;19.50;1.00;;;;;;20654805;28;20035;-42
2023/08/05 10:16:42;;;;;;;7.07;4.82;;;19.40;1.00;;;;;;20675427;28;20034;-42
2023/08/05 10:26:46;;;;;;;11.20;6.88;;;19.20;1.00;;;;;;20679730;28;20467;-42
2023/08/05 10:36:48;;;;;;;10.80;7.18;;;18.10;1.00;;;;;;20699332;28;20588;-43
2023/08/05 10:46:49;;;;;;;11.77;8.25;;;17.10;18.20;;;;;;20693245;28;20123;-44
2023/08/05 10:56:49;;;;;;;8.65;7.00;;;17.10;94.40;;;;;;20688298;28;20034;-44
2023/08/05 11:06:51;;;;;;;13.35;6.35;;;17.30;72.80;;;;;;20695151;28;20565;-44
2023/08/05 11:16:59;;;;;;;10.57;5.95;;;17.20;3.20;;;;;;20664267;28;20482;-43
2023/08/05 11:27:00;;;;;;;10.55;5.70;;;17.30;1.00;;;;;;20650207;28;20037;-42
2023/08/05 11:37:00;;;;;;;7.57;4.97;;;17.30;1.00;;;;;;20648009;28;20121;-42
2023/08/05 11:47:03;;;;;;;8.63;4.70;;;17.20;1.00;;;;;;20655148;28;20440;-42
2023/08/05 11:57:18;;;;;;;5.13;3.58;;;17.10;1.00;;;;;;20663065;28;20053;-42
2023/08/05 12:07:20;;;;;;;7.95;3.58;;;17.10;1.00;;;;;;20678996;28;20501;-42
2023/08/05 12:17:21;;;;;;;9.20;5.07;;;16.20;1.00;;;;;;20658711;28;20123;-42
2023/08/05 12:27:23;;;;;;;7.38;3.72;;;15.60;9.90;;;;;;20651792;28;20054;-42
2023/08/05 12:37:24;;;;;;;7.40;4.32;;;15.50;1.00;;;;;;20680668;28;20069;-42
2023/08/05 12:47:25;;;;;;;6.63;3.77;;;15.30;23.50;;;;;;20626555;28;20038;-43
2023/08/05 12:57:25;;;;;;;6.50;4.35;;;15.20;28.10;;;;;;20654577;28;20412;-42
2023/08/05 13:07:26;;;;;;;9.80;4.50;;;15.10;99.10;;;;;;20643194;28;20698;-43
2023/08/05 13:17:26;;;;;;;7.93;4.75;;;15.10;99.90;;;;;;20638022;28;20056;-44
2023/08/05 13:27:27;;;;;;;9.43;6.07;;;15.10;99.90;;;;;;20645588;28;20062;-43
2023/08/05 13:37:27;;;;;;;9.87;5.63;;;15.10;99.90;;;;;;20643680;28;21349;-43
2023/08/05 13:47:28;;;;;;;9.07;5.68;;;15.10;99.90;;;;;;20638835;28;20336;-43
2023/08/05 13:57:28;;;;;;;13.82;5.88;;;15.30;99.90;;;;;;20612401;28;20176;-43
2023/08/05 14:07:29;;;;;;;11.10;6.10;;;15.50;99.90;;;;;;20651821;28;20037;-42
2023/08/05 14:17:30;;;;;;;10.05;6.35;;;15.80;99.90;;;;;;20636439;28;20132;-42
2023/08/05 14:27:30;;;;;;;4.63;3.20;;;16.00;99.90;;;;;;20633828;28;20264;-41
2023/08/05 14:37:31;;;;;;;6.00;2.87;;;15.90;24.70;;;;;;20632377;28;20068;-42
2023/08/05 14:47:31;;;;;;;7.28;3.58;;;15.40;1.00;;;;;;20666061;28;20034;-42
2023/08/05 14:57:32;;;;;;;8.05;4.32;;;15.00;20.90;;;;;;20600732;28;20412;-42
2023/08/05 15:07:32;;;;;;;5.38;4.10;;;14.80;66.20;;;;;;20619869;28;20068;-42
2023/08/05 15:17:33;;;;;;;8.30;3.80;;;14.80;71.50;;;;;;20637414;28;20509;-40
2023/08/05 15:27:34;;;;;;;7.28;3.90;;;14.90;98.20;;;;;;20653331;28;20705;-41
2023/08/05 15:37:34;;;;;;;7.47;3.47;;;15.00;65.50;;;;;;20640906;28;20042;-41
2023/08/05 15:47:35;;;;;;;9.02;4.40;;;15.30;62.80;;;;;;20649106;28;20048;-40
2023/08/05 15:57:36;;;;;;;6.63;3.17;;;15.50;45.90;;;;;;20664446;28;20180;-40
2023/08/05 16:07:38;;;;;;;7.50;3.38;;;15.60;16.20;;;;;;20666804;28;20048;-40
2023/08/05 16:17:38;;;;;;;4.55;2.28;;;15.70;1.60;;;;;;20667084;28;20662;-40
2023/08/05 16:27:40;;;;;;;3.85;2.25;;;15.80;1.00;;;;;;20668258;28;20129;-40
2023/08/05 16:37:41;;;;;;;3.50;2.20;;;15.80;1.00;;;;;;20684402;28;20200;-41
2023/08/05 16:47:42;;;;;;;5.57;2.15;;;16.00;1.00;;;;;;20681444;28;20037;-41
2023/08/05 16:57:42;;;;;;;3.85;2.30;;;16.00;1.00;;;;;;20684497;28;20037;-41
2023/08/05 17:07:43;;;;;;;4.95;2.40;;;16.00;1.00;;;;;;20664515;28;20405;-41
2023/08/05 17:17:44;;;;;;;4.18;1.88;;;16.10;1.00;;;;;;20672637;28;20046;-41
2023/08/05 17:27:44;;;;;;;4.43;2.33;;;16.00;1.00;;;;;;20680650;28;20073;-42
2023/08/05 17:37:45;;;;;;;4.78;2.50;;;16.10;1.00;;;;;;20667579;28;20041;-41
2023/08/05 17:47:45;;;;;;;3.97;2.60;;;16.20;1.00;;;;;;20657375;28;20044;-41
2023/08/05 17:57:46;;;;;;;5.78;3.17;;;16.00;1.00;;;;;;20657229;28;20038;-41
2023/08/05 18:07:46;;;;;;;5.93;3.10;;;15.90;1.00;;;;;;20667379;28;20390;-41
2023/08/05 18:17:47;;;;;;;5.45;2.80;;;15.80;1.00;;;;;;20662664;28;20045;-41
2023/08/05 18:27:47;;;;;;;5.30;3.42;;;15.70;7.10;;;;;;20652912;28;20598;-41
2023/08/05 18:37:49;;;;;;;4.78;3.08;;;15.70;10.50;;;;;;20667890;28;20042;-41
2023/08/05 18:47:49;;;;;;;4.40;3.22;;;15.70;8.70;;;;;;20654518;28;20506;-41
2023/08/05 18:57:50;;;;;;;5.20;3.30;;;15.70;19.00;;;;;;20647318;28;20054;-42
2023/08/05 19:07:50;;;;;;;4.85;3.35;;;15.80;16.90;;;;;;20662961;28;20038;-41
2023/08/05 19:17:51;;;;;;;7.68;4.50;;;15.70;14.60;;;;;;20674951;28;20456;-41
2023/08/05 19:27:51;;;;;;;6.83;3.90;;;15.70;20.50;;;;;;20664146;28;20500;-41
2023/08/05 19:37:52;;;;;;;7.75;4.07;;;15.70;30.40;;;;;;20677657;28;20467;-41
2023/08/05 19:47:52;;;;;;;8.35;4.60;;;15.70;47.90;;;;;;20656177;28;20037;-41
2023/08/05 19:57:53;;;;;;;8.15;5.07;;;15.60;55.80;;;;;;20667764;28;20034;-41
2023/08/05 20:07:53;;;;;;;9.27;4.88;;;15.60;77.80;;;;;;20656146;28;20033;-41
2023/08/05 20:17:54;;;;;;;6.07;4.35;;;15.60;95.00;;;;;;20654264;28;20054;-41
2023/08/05 20:27:54;;;;;;;7.60;4.45;;;15.60;95.00;;;;;;20660952;28;20046;-41
2023/08/05 20:37:55;;;;;;;7.35;4.78;;;15.50;99.90;;;;;;20645418;28;20042;-41
2023/08/05 20:47:56;;;;;;;6.45;4.47;;;15.50;99.90;;;;;;20654760;28;20412;-41
2023/08/05 20:57:56;;;;;;;4.97;3.70;;;15.50;99.90;;;;;;20661041;28;20049;-41
2023/08/05 21:07:57;;;;;;;6.55;3.85;;;15.50;99.90;;;;;;20646794;28;20495;-41
2023/08/05 21:17:57;;;;;;;5.70;3.75;;;15.50;99.60;;;;;;20657651;28;20052;-41
2023/08/05 21:27:58;;;;;;;6.97;4.88;;;15.50;99.90;;;;;;20674236;28;20054;-41
2023/08/05 21:37:58;;;;;;;7.47;5.00;;;15.50;99.90;;;;;;20702035;28;20144;-41
2023/08/05 21:47:59;;;;;;;9.00;5.75;;;15.40;99.90;;;;;;20703485;28;20354;-41
2023/08/05 21:58:00;;;;;;;7.68;5.32;;;15.30;99.90;;;;;;20704463;28;20066;-41
2023/08/05 22:08:00;;;;;;;7.32;5.20;;;15.10;99.90;;;;;;20692970;28;20061;-41
2023/08/05 22:18:01;;;;;;;11.52;5.90;;;15.10;99.90;;;;;;20702908;28;20503;-41
2023/08/05 22:28:01;;;;;;;8.03;5.50;;;15.10;99.90;;;;;;20686935;28;20509;-41
2023/08/05 22:38:02;;;;;;;8.27;5.93;;;15.10;99.90;;;;;;20684796;28;21046;-41
2023/08/05 22:48:03;;;;;;;10.60;6.38;;;14.90;99.90;;;;;;20679848;28;20120;-43
2023/08/05 22:58:03;;;;;;;10.82;6.82;;;14.90;99.90;;;;;;20672231;28;20068;-42
2023/08/05 23:08:04;;;;;;;9.32;7.30;;;14.90;99.90;;;;;;20678977;28;20243;-41
2023/08/05 23:18:04;;;;;;;10.60;7.82;;;14.90;99.90;;;;;;20672819;28;20129;-42
2023/08/05 23:28:05;;;;;;;11.20;8.40;;;14.90;99.90;;;;;;20668587;28;20045;-42
2023/08/05 23:38:06;;;;;;;11.10;7.93;;;14.90;99.90;;;;;;20662161;28;20093;-42
2023/08/05 23:48:07;;;;;;;10.43;7.93;;;14.90;99.90;;;;;;20666531;28;20042;-42
2023/08/05 23:58:07;;;;;;;11.57;8.00;;;14.90;99.90;;;;;;20669123;28;20936;-42
